createdAt,value
2019-05-16T00:01:09.394Z,49.46
2019-05-16T00:03:38.566Z,49.36
2019-05-16T00:06:08.574Z,49.36
2019-05-16T00:08:38.774Z,49.52
2019-05-16T00:11:08.565Z,49.46
2019-05-16T00:13:38.403Z,49.38
2019-05-16T00:16:08.045Z,49.50
2019-05-16T00:18:38.813Z,49.61
2019-05-16T00:21:08.693Z,49.82
2019-05-16T00:23:37.984Z,49.88
2019-05-16T00:26:07.884Z,49.88
2019-05-16T00:28:38.050Z,49.88
2019-05-16T00:31:08.676Z,49.98
2019-05-16T00:33:38.062Z,49.84
2019-05-16T00:36:09.209Z,50.03
2019-05-16T00:38:38.072Z,50.12
2019-05-16T00:41:08.525Z,50.10
2019-05-16T00:43:37.958Z,50.06
2019-05-16T00:46:08.199Z,50.00
2019-05-16T00:48:38.179Z,49.97
2019-05-16T00:51:07.975Z,50.14
2019-05-16T00:53:38.281Z,50.18
2019-05-16T00:56:08.059Z,50.28
2019-05-16T00:58:38.009Z,50.47
2019-05-16T01:01:08.537Z,50.38
2019-05-16T01:03:37.923Z,50.22
2019-05-16T01:06:16.548Z,50.14
2019-05-16T01:08:38.523Z,50.07
2019-05-16T01:11:08.040Z,49.96
2019-05-16T01:13:38.117Z,50.04
2019-05-16T01:16:08.634Z,50.06
2019-05-16T01:18:38.106Z,50.07
2019-05-16T01:21:07.881Z,50.11
2019-05-16T01:23:38.869Z,50.22
2019-05-16T01:26:08.058Z,50.24
2019-05-16T01:28:37.763Z,50.16
2019-05-16T01:31:08.591Z,50.27
2019-05-16T01:33:38.548Z,50.19
2019-05-16T01:36:08.995Z,50.28
2019-05-16T01:38:39.016Z,50.34
2019-05-16T01:41:08.778Z,50.38
2019-05-16T01:43:37.933Z,50.48
2019-05-16T01:46:08.426Z,50.73
2019-05-16T01:48:38.186Z,50.96
2019-05-16T01:51:07.777Z,50.92
2019-05-16T01:53:39.289Z,50.98
2019-05-16T01:56:08.592Z,50.75
2019-05-16T01:58:38.260Z,50.75
2019-05-16T02:01:13.198Z,50.75
2019-05-16T02:03:38.761Z,50.79
2019-05-16T02:06:08.881Z,50.77
2019-05-16T02:08:38.151Z,50.77
2019-05-16T02:11:08.566Z,50.63
2019-05-16T02:13:39.050Z,50.59
2019-05-16T02:16:08.388Z,50.71
2019-05-16T02:18:38.163Z,50.80
2019-05-16T02:21:07.927Z,50.91
2019-05-16T02:23:38.197Z,51.10
2019-05-16T02:26:07.955Z,51.33
2019-05-16T02:28:40.910Z,51.34
2019-05-16T02:31:11.970Z,51.37
2019-05-16T02:33:40.586Z,51.58
2019-05-16T02:36:11.004Z,52.06
2019-05-16T02:38:42.227Z,52.21
2019-05-16T02:41:11.093Z,52.51
2019-05-16T02:43:42.004Z,52.55
2019-05-16T02:46:11.978Z,53.04
2019-05-16T02:48:41.599Z,53.31
2019-05-16T02:51:11.178Z,53.69
2019-05-16T02:53:41.561Z,53.87
2019-05-16T02:56:12.191Z,54.09
2019-05-16T02:58:44.875Z,54.29
2019-05-16T03:01:12.445Z,54.29
2019-05-16T03:03:44.071Z,54.19
2019-05-16T03:06:13.672Z,54.30
2019-05-16T03:08:43.367Z,54.47
2019-05-16T03:11:12.613Z,54.67
2019-05-16T03:13:42.782Z,54.83
2019-05-16T03:16:12.155Z,55.39
2019-05-16T03:18:41.697Z,56.04
2019-05-16T03:21:12.189Z,56.54
2019-05-16T03:23:42.237Z,57.15
2019-05-16T03:26:11.883Z,57.29
2019-05-16T03:28:41.479Z,57.54
2019-05-16T03:31:15.330Z,58.00
2019-05-16T03:33:49.920Z,58.63
2019-05-16T03:36:14.836Z,58.91
2019-05-16T03:38:42.826Z,59.07
2019-05-16T03:41:11.875Z,59.19
2019-05-16T03:43:41.334Z,59.28
2019-05-16T03:46:11.874Z,59.42
2019-05-16T03:48:41.222Z,59.59
2019-05-16T03:51:11.274Z,59.69
2019-05-16T03:53:40.691Z,60.01
2019-05-16T03:56:11.071Z,60.12
2019-05-16T03:58:41.613Z,60.70
2019-05-16T04:01:11.481Z,61.06
2019-05-16T04:03:41.511Z,61.33
2019-05-16T04:06:11.927Z,61.56
2019-05-16T04:08:41.553Z,62.00
2019-05-16T04:11:13.876Z,62.40
2019-05-16T04:13:42.876Z,63.01
2019-05-16T04:16:12.247Z,63.48
2019-05-16T04:18:42.112Z,63.85
2019-05-16T04:21:11.974Z,64.15
2019-05-16T04:23:42.048Z,64.36
2019-05-16T04:26:11.587Z,64.50
2019-05-16T04:28:41.481Z,64.73
2019-05-16T04:31:11.111Z,65.00
2019-05-16T04:33:41.615Z,65.31
2019-05-16T04:36:11.148Z,65.64
2019-05-16T04:38:46.016Z,65.85
2019-05-16T04:41:11.691Z,66.18
2019-05-16T04:43:41.737Z,66.47
2019-05-16T04:46:11.840Z,66.69
2019-05-16T04:48:41.845Z,66.91
2019-05-16T04:51:11.159Z,67.18
2019-05-16T04:53:42.502Z,67.34
2019-05-16T04:56:11.228Z,67.69
2019-05-16T04:58:41.034Z,67.92
2019-05-16T05:01:11.195Z,68.26
2019-05-16T05:03:42.563Z,68.53
2019-05-16T05:06:11.553Z,68.85
2019-05-16T05:08:52.948Z,69.07
2019-05-16T05:11:11.354Z,69.34
2019-05-16T05:13:41.311Z,69.60
2019-05-16T05:16:10.833Z,69.83
2019-05-16T05:18:40.922Z,69.92
2019-05-16T05:21:11.818Z,70.06
2019-05-16T05:23:41.086Z,70.32
2019-05-16T05:26:10.747Z,70.66
2019-05-16T05:28:40.365Z,70.83
2019-05-16T05:31:10.867Z,71.03
2019-05-16T05:33:41.597Z,71.17
2019-05-16T05:36:12.320Z,71.38
2019-05-16T05:38:41.798Z,71.49
2019-05-16T05:41:10.944Z,71.62
2019-05-16T05:43:40.048Z,71.80
2019-05-16T05:46:11.158Z,71.97
2019-05-16T05:48:41.051Z,72.11
2019-05-16T05:51:11.294Z,72.27
2019-05-16T05:53:40.632Z,72.37
2019-05-16T05:56:11.303Z,72.34
2019-05-16T05:58:40.785Z,72.46
2019-05-16T06:01:11.103Z,72.66
2019-05-16T06:03:40.333Z,72.79
2019-05-16T06:06:10.508Z,72.94
2019-05-16T06:08:40.886Z,73.08
2019-05-16T06:11:10.237Z,73.21
2019-05-16T06:13:40.442Z,73.40
2019-05-16T06:16:10.759Z,73.52
2019-05-16T06:18:40.116Z,73.71
2019-05-16T06:21:11.506Z,73.93
2019-05-16T06:23:40.394Z,74.00
2019-05-16T06:26:12.213Z,74.13
2019-05-16T06:28:41.261Z,74.28
2019-05-16T06:31:13.974Z,74.43
2019-05-16T06:33:41.640Z,74.50
2019-05-16T06:36:11.128Z,74.54
2019-05-16T06:38:40.628Z,74.69
2019-05-16T06:41:10.704Z,74.74
2019-05-16T06:43:40.151Z,74.94
2019-05-16T06:46:11.046Z,75.06
2019-05-16T06:48:40.057Z,75.08
2019-05-16T06:51:10.836Z,75.14
2019-05-16T06:53:40.448Z,75.33
2019-05-16T06:56:10.527Z,75.40
2019-05-16T06:58:47.578Z,75.49
2019-05-16T07:01:10.685Z,75.55
2019-05-16T07:03:40.251Z,75.55
2019-05-16T07:06:13.881Z,75.72
2019-05-16T07:08:40.435Z,75.81
2019-05-16T07:11:10.612Z,75.89
2019-05-16T07:13:40.610Z,76.00
2019-05-16T07:16:09.894Z,76.04
2019-05-16T07:18:40.194Z,76.02
2019-05-16T07:21:10.891Z,76.16
2019-05-16T07:23:40.559Z,76.25
2019-05-16T07:26:10.055Z,76.26
2019-05-16T07:28:40.662Z,76.39
2019-05-16T07:31:17.610Z,76.43
2019-05-16T07:33:40.837Z,76.42
2019-05-16T07:36:10.091Z,76.47
2019-05-16T07:38:40.075Z,76.47
2019-05-16T07:41:11.054Z,76.46
2019-05-16T07:43:40.219Z,76.37
2019-05-16T07:46:11.150Z,76.33
2019-05-16T07:48:40.432Z,76.38
2019-05-16T07:51:10.321Z,76.42
2019-05-16T07:53:40.378Z,76.47
2019-05-16T07:56:10.511Z,76.48
2019-05-16T07:58:41.317Z,76.49
2019-05-16T08:01:12.434Z,76.46
2019-05-16T08:03:44.232Z,76.45
2019-05-16T08:06:12.320Z,76.48
2019-05-16T08:08:41.382Z,76.51
2019-05-16T08:11:12.104Z,76.57
2019-05-16T08:13:41.492Z,76.50
2019-05-16T08:16:10.574Z,76.53
2019-05-16T08:18:44.763Z,76.58
2019-05-16T08:21:12.810Z,76.50
2019-05-16T08:23:41.434Z,76.48
2019-05-16T08:26:10.577Z,76.51
2019-05-16T08:28:41.379Z,76.56
2019-05-16T08:33:41.741Z,76.67
2019-05-16T08:36:11.937Z,76.67
2019-05-16T08:38:43.347Z,76.66
2019-05-16T08:41:16.965Z,76.61
2019-05-16T08:43:43.017Z,76.58
2019-05-16T08:46:12.517Z,76.61
2019-05-16T08:48:42.423Z,76.57
2019-05-16T08:50:11.857Z,76.72
2019-05-16T08:51:12.337Z,76.51
2019-05-16T08:53:43.363Z,76.47
2019-05-16T08:56:13.131Z,76.42
2019-05-16T08:58:42.528Z,76.37
2019-05-16T09:01:14.776Z,76.38
2019-05-16T09:03:42.415Z,76.36
2019-05-16T09:06:11.898Z,76.39
2019-05-16T09:08:41.169Z,76.34
2019-05-16T09:11:29.224Z,76.33
2019-05-16T09:13:41.035Z,76.35
2019-05-16T09:16:10.098Z,76.34
2019-05-16T09:18:41.291Z,76.35
2019-05-16T09:21:09.974Z,76.30
2019-05-16T09:23:39.050Z,76.18
2019-05-16T09:26:08.110Z,76.19
2019-05-16T09:28:38.985Z,76.23
2019-05-16T09:31:08.097Z,76.24
2019-05-16T09:33:37.590Z,76.21
2019-05-16T09:36:08.023Z,76.17
2019-05-16T09:38:38.341Z,76.25
2019-05-16T09:41:07.995Z,76.31
2019-05-16T09:43:42.803Z,76.28
2019-05-16T09:46:08.250Z,76.32
2019-05-16T09:48:38.135Z,76.32
2019-05-16T09:51:07.479Z,76.32
2019-05-16T09:53:36.761Z,76.40
2019-05-16T09:56:07.085Z,76.37
2019-05-16T09:58:37.309Z,76.35
2019-05-16T10:01:06.584Z,76.40
2019-05-16T10:03:37.279Z,76.42
2019-05-16T10:06:07.962Z,76.44
2019-05-16T10:08:37.576Z,76.46
2019-05-16T10:11:06.834Z,76.57
2019-05-16T10:13:37.667Z,76.65
2019-05-16T10:16:07.252Z,76.68
2019-05-16T10:18:37.105Z,76.71
2019-05-16T10:21:08.000Z,76.67
2019-05-16T10:23:37.117Z,76.75
2019-05-16T10:26:06.210Z,76.84
2019-05-16T10:28:38.267Z,76.94
2019-05-16T10:31:06.942Z,76.98
2019-05-16T10:33:38.909Z,77.04
2019-05-16T10:36:08.461Z,77.12
2019-05-16T10:38:37.730Z,77.09
2019-05-16T10:41:07.359Z,77.00
2019-05-16T10:43:37.055Z,77.03
2019-05-16T10:46:06.594Z,77.07
2019-05-16T10:48:37.685Z,77.14
2019-05-16T10:51:07.822Z,77.19
2019-05-16T10:54:00.562Z,77.26
2019-05-16T10:56:08.033Z,77.34
2019-05-16T10:58:59.258Z,77.43
2019-05-16T11:01:22.256Z,77.43
2019-05-16T11:03:38.766Z,77.50
2019-05-16T11:06:17.468Z,77.56
2019-05-16T11:08:39.581Z,77.61
2019-05-16T11:11:08.877Z,77.64
2019-05-16T11:13:38.052Z,77.69
2019-05-16T11:16:09.511Z,77.70
2019-05-16T11:18:37.967Z,77.74
2019-05-16T11:21:07.026Z,77.81
2019-05-16T11:23:36.732Z,77.85
2019-05-16T11:26:05.973Z,77.82
2019-05-16T11:28:36.845Z,77.86
2019-05-16T11:31:07.599Z,77.90
2019-05-16T11:33:37.105Z,77.88
2019-05-16T11:36:08.064Z,77.82
2019-05-16T11:38:37.814Z,77.81
2019-05-16T11:41:07.451Z,77.82
2019-05-16T11:43:36.830Z,77.86
2019-05-16T11:46:05.888Z,77.84
2019-05-16T11:48:37.632Z,77.87
2019-05-16T11:51:07.172Z,77.92
2019-05-16T11:53:37.815Z,77.93
2019-05-16T11:56:08.414Z,77.99
2019-05-16T11:58:37.748Z,78.05
2019-05-16T12:01:07.663Z,78.14
2019-05-16T12:03:37.505Z,78.29
2019-05-16T12:06:10.843Z,78.31
2019-05-16T12:08:37.483Z,78.28
2019-05-16T12:11:07.054Z,78.30
2019-05-16T12:13:36.954Z,78.35
2019-05-16T12:16:07.669Z,78.46
2019-05-16T12:18:37.465Z,78.49
2019-05-16T12:21:07.620Z,78.44
2019-05-16T12:23:37.365Z,78.48
2019-05-16T12:26:07.879Z,78.54
2019-05-16T12:28:37.180Z,78.61
2019-05-16T12:31:07.128Z,78.62
2019-05-16T12:33:37.475Z,78.66
2019-05-16T12:36:07.564Z,78.72
2019-05-16T12:38:38.025Z,78.80
2019-05-16T12:41:07.401Z,78.81
2019-05-16T12:43:46.148Z,78.84
2019-05-16T12:46:07.726Z,78.87
2019-05-16T12:48:37.471Z,78.92
2019-05-16T12:51:08.440Z,78.98
2019-05-16T12:53:37.626Z,79.02
2019-05-16T12:56:06.818Z,78.93
2019-05-16T12:58:39.154Z,78.91
2019-05-16T13:01:07.772Z,79.04
2019-05-16T13:03:38.027Z,79.24
2019-05-16T13:06:07.167Z,79.43
2019-05-16T13:08:37.492Z,79.50
2019-05-16T13:11:07.282Z,79.56
2019-05-16T13:13:37.458Z,79.66
2019-05-16T13:16:07.576Z,79.74
2019-05-16T13:18:37.208Z,79.71
2019-05-16T13:21:06.894Z,79.65
2019-05-16T13:23:36.062Z,79.67
2019-05-16T13:26:07.296Z,79.70
2019-05-16T13:28:37.916Z,79.74
2019-05-16T13:31:07.722Z,79.83
2019-05-16T13:33:37.082Z,79.90
2019-05-16T13:36:07.477Z,79.95
2019-05-16T13:38:36.785Z,80.07
2019-05-16T13:41:07.423Z,80.08
2019-05-16T13:43:37.596Z,80.00
2019-05-16T13:46:07.319Z,79.96
2019-05-16T13:48:37.641Z,79.90
2019-05-16T13:51:14.866Z,79.90
2019-05-16T13:53:37.852Z,79.80
2019-05-16T13:56:12.639Z,79.72
2019-05-16T13:58:37.759Z,79.68
2019-05-16T14:01:07.803Z,79.66
2019-05-16T14:03:37.565Z,79.66
2019-05-16T14:06:07.339Z,79.61
2019-05-16T14:08:37.291Z,79.52
2019-05-16T14:11:10.144Z,79.39
2019-05-16T14:13:37.796Z,79.32
2019-05-16T14:16:07.453Z,79.26
2019-05-16T14:18:37.808Z,79.20
2019-05-16T14:21:07.190Z,79.12
2019-05-16T14:23:38.135Z,79.01
2019-05-16T14:26:07.380Z,78.92
2019-05-16T14:28:37.599Z,78.87
2019-05-16T14:31:07.474Z,78.84
2019-05-16T14:33:36.868Z,78.83
2019-05-16T14:36:07.424Z,78.83
2019-05-16T14:38:37.444Z,78.80
2019-05-16T14:41:08.165Z,78.71
2019-05-16T14:43:37.539Z,78.59
2019-05-16T14:46:09.459Z,78.45
2019-05-16T14:48:37.413Z,78.41
2019-05-16T14:51:06.488Z,78.31
2019-05-16T14:53:37.981Z,78.16
2019-05-16T14:56:06.999Z,78.10
2019-05-16T14:58:37.746Z,78.00
2019-05-16T15:01:07.604Z,77.98
2019-05-16T15:03:37.149Z,77.97
2019-05-16T15:06:08.631Z,77.94
2019-05-16T15:08:37.097Z,77.88
2019-05-16T15:11:07.656Z,77.86
2019-05-16T15:13:36.835Z,77.79
2019-05-16T15:16:07.659Z,77.87
2019-05-16T15:18:38.433Z,77.90
2019-05-16T15:21:08.736Z,77.93
2019-05-16T15:23:38.037Z,77.96
2019-05-16T15:26:09.362Z,77.97
2019-05-16T15:28:37.905Z,77.96
2019-05-16T15:31:07.171Z,77.98
2019-05-16T15:33:36.597Z,77.98
2019-05-16T15:36:08.665Z,78.00
2019-05-16T15:38:36.643Z,78.03
2019-05-16T15:41:08.334Z,77.98
2019-05-16T15:43:37.101Z,77.99
2019-05-16T15:46:08.211Z,78.04
2019-05-16T15:48:37.576Z,78.07
2019-05-16T15:51:08.736Z,78.13
2019-05-16T15:53:39.276Z,78.16
2019-05-16T15:56:10.481Z,78.18
2019-05-16T15:58:39.164Z,78.24
2019-05-16T16:01:08.225Z,78.25
2019-05-16T16:03:38.117Z,78.29
2019-05-16T16:06:07.462Z,78.35
2019-05-16T16:08:37.452Z,78.40
2019-05-16T16:11:07.463Z,78.41
2019-05-16T16:13:37.408Z,78.45
2019-05-16T16:16:10.324Z,78.52
2019-05-16T16:18:37.970Z,78.66
2019-05-16T16:21:07.654Z,78.84
2019-05-16T16:23:37.464Z,78.94
2019-05-16T16:26:07.241Z,78.96
2019-05-16T16:28:38.273Z,79.03
2019-05-16T16:31:07.882Z,79.10
2019-05-16T16:33:37.612Z,79.13
2019-05-16T16:36:07.925Z,79.17
2019-05-16T16:38:37.384Z,79.23
2019-05-16T16:41:08.090Z,79.26
2019-05-16T16:43:37.570Z,79.23
2019-05-16T16:46:12.953Z,79.25
2019-05-16T16:48:37.727Z,79.30
2019-05-16T16:51:06.856Z,79.37
2019-05-16T16:53:37.823Z,79.39
2019-05-16T16:56:07.616Z,79.35
2019-05-16T16:58:37.342Z,79.37
2019-05-16T17:01:07.466Z,79.44
2019-05-16T17:03:37.136Z,79.38
2019-05-16T17:06:06.493Z,79.29
2019-05-16T17:08:37.365Z,79.29
2019-05-16T17:11:07.584Z,79.29
2019-05-16T17:13:36.898Z,79.35
2019-05-16T17:16:21.596Z,79.39
2019-05-16T17:18:37.852Z,79.44
2019-05-16T17:21:07.928Z,79.49
2019-05-16T17:23:37.305Z,79.57
2019-05-16T17:26:07.361Z,79.63
2019-05-16T17:28:37.303Z,79.63
2019-05-16T17:31:07.322Z,79.63
2019-05-16T17:33:38.176Z,79.65
2019-05-16T17:36:09.080Z,79.73
2019-05-16T17:38:38.310Z,79.83
2019-05-16T17:41:07.854Z,79.92
2019-05-16T17:43:37.062Z,79.91
2019-05-16T17:46:07.087Z,79.89
2019-05-16T17:48:37.934Z,79.90
2019-05-16T17:51:07.184Z,79.97
2019-05-16T17:53:37.433Z,80.00
2019-05-16T17:56:07.069Z,79.93
2019-05-16T17:58:36.238Z,79.91
2019-05-16T18:01:07.191Z,79.87
2019-05-16T18:03:37.245Z,79.91
2019-05-16T18:06:06.665Z,79.94
2019-05-16T18:08:37.489Z,79.98
2019-05-16T18:11:07.209Z,80.00
2019-05-16T18:13:37.252Z,80.04
2019-05-16T18:16:07.507Z,80.04
2019-05-16T18:18:37.578Z,80.01
2019-05-16T18:21:07.262Z,80.01
2019-05-16T18:23:36.998Z,80.09
2019-05-16T18:26:07.625Z,80.13
2019-05-16T18:28:37.153Z,80.13
2019-05-16T18:31:06.220Z,80.15
2019-05-16T18:33:37.081Z,80.16
2019-05-16T18:36:07.710Z,80.18
2019-05-16T18:38:37.436Z,80.17
2019-05-16T18:41:07.882Z,80.15
2019-05-16T18:43:37.158Z,80.23
2019-05-16T18:52:23.302Z,80.40
2019-05-16T18:54:52.797Z,80.37
2019-05-16T18:57:22.154Z,80.36
2019-05-16T18:59:51.433Z,80.42
2019-05-16T19:02:20.701Z,80.49
2019-05-16T19:04:50.295Z,80.50
2019-05-16T19:07:20.663Z,80.48
2019-05-16T19:09:50.037Z,80.52
2019-05-16T19:12:19.343Z,80.55
2019-05-16T19:14:48.492Z,80.52
2019-05-16T19:17:24.158Z,80.51
2019-05-16T19:19:49.909Z,80.59
2019-05-16T19:22:30.776Z,80.62
2019-05-16T19:28:57.118Z,80.75
2019-05-16T19:31:26.570Z,80.65
2019-05-16T19:33:56.553Z,80.82
2019-05-16T19:36:27.043Z,80.86
2019-05-16T19:38:57.076Z,80.92
2019-05-16T19:41:29.197Z,80.95
2019-05-16T19:43:58.509Z,81.04
2019-05-16T19:46:27.796Z,81.13
2019-05-16T19:48:57.180Z,81.12
2019-05-16T19:51:26.927Z,81.11
2019-05-16T19:53:56.582Z,81.14
2019-05-16T19:56:26.963Z,81.20
2019-05-16T19:58:57.157Z,81.28
2019-05-16T20:01:27.388Z,81.38
2019-05-16T20:03:56.854Z,81.52
2019-05-16T20:06:27.453Z,81.58
2019-05-16T20:08:56.942Z,81.63
2019-05-16T20:11:27.625Z,81.55
2019-05-16T20:13:58.741Z,81.53
2019-05-16T20:16:29.905Z,81.45
2019-05-16T20:19:11.008Z,81.41
2019-05-16T20:22:16.639Z,81.34
2019-05-16T20:25:40.337Z,81.43
2019-05-16T20:28:40.194Z,81.45
2019-05-16T20:31:31.793Z,81.49
2019-05-16T20:34:30.152Z,81.53
2019-05-16T20:40:50.403Z,81.49
2019-05-16T20:43:27.944Z,81.49
2019-05-16T20:46:03.758Z,81.49
2019-05-16T20:48:32.893Z,81.51
2019-05-16T20:51:26.995Z,81.51
2019-05-16T20:54:10.862Z,81.54
2019-05-16T20:57:10.029Z,81.59
2019-05-16T20:59:49.202Z,81.60
2019-05-16T21:02:20.475Z,81.69
2019-05-16T21:04:50.689Z,81.70
2019-05-16T21:07:46.083Z,81.76
2019-05-16T21:10:19.461Z,81.81
2019-05-16T21:12:54.398Z,81.76
2019-05-16T21:15:26.223Z,81.80
2019-05-16T21:17:56.718Z,81.82
2019-05-16T21:20:34.290Z,81.76
2019-05-16T21:23:09.235Z,81.76
2019-05-16T21:25:50.238Z,81.71
2019-05-16T21:28:42.293Z,81.71
2019-05-16T21:32:27.063Z,81.72
2019-05-16T21:36:00.762Z,81.76
2019-05-16T21:38:38.652Z,81.81
2019-05-16T21:41:17.776Z,81.83
2019-05-16T21:44:11.370Z,81.89
2019-05-16T21:47:09.144Z,81.97
2019-05-16T21:50:07.238Z,82.02
2019-05-16T21:53:36.727Z,82.00
2019-05-16T21:56:54.104Z,82.12
2019-05-16T22:00:03.283Z,82.22
2019-05-16T22:03:57.837Z,82.29
2019-05-16T22:16:19.067Z,82.35
2019-05-16T22:20:06.949Z,82.32
2019-05-16T22:22:39.279Z,82.37
2019-05-16T22:26:01.850Z,82.36
2019-05-16T22:29:06.711Z,82.46
2019-05-16T22:31:47.145Z,82.53
2019-05-16T22:34:17.016Z,82.58
2019-05-16T22:36:49.771Z,82.69
2019-05-16T22:39:19.224Z,82.73
2019-05-16T22:41:52.759Z,82.74
2019-05-16T22:44:28.388Z,82.84
2019-05-16T22:47:07.902Z,82.92
2019-05-16T22:49:56.732Z,82.97
2019-05-16T22:53:07.371Z,83.08
2019-05-16T22:55:48.007Z,83.21
2019-05-16T22:58:37.005Z,83.40
2019-05-16T23:01:30.892Z,83.59
2019-05-16T23:04:24.677Z,83.71
2019-05-16T23:06:56.460Z,83.86
2019-05-16T23:12:49.040Z,84.08
2019-05-16T23:15:22.706Z,84.20
2019-05-16T23:17:57.376Z,84.29
2019-05-16T23:20:30.875Z,84.38
2019-05-16T23:23:17.393Z,84.49
2019-05-16T23:26:12.407Z,84.50
2019-05-16T23:36:18.859Z,84.59
2019-05-16T23:42:59.192Z,84.57
2019-05-16T23:45:56.244Z,84.59
2019-05-16T23:55:41.842Z,84.52
